Terminal Aerodrome Forecast
Issued by NWS

Home | Current Version | Previous Version | Text Only | Print | Product List | Glossary Off
Versions: 1 2 3 4 5 6 7 8 9 10 11 12 13 14 15 16 17

463
FTUS43 KGRB 201126
TAFCWA
TAF
KCWA 201126Z 2012/2112 28005KT P6SM -SHRA SCT025 BKN050
      TEMPO 2013/2015 5SM -SHRA BR BKN025
     FM201800 30008KT P6SM BKN050
     FM202100 31007KT P6SM SCT060
     FM210000 30003KT P6SM SKC=

USA.gov is the U.S. government's official web portal to all federal, state and local government web resources and services.